Time;durP1;ratioP1;P1;durP2;ratioP2;P2;SDS_P1;SDS_P2;PMS_P1;PMS_P2;Temp;Humidity;BMP_temperature;BMP_pressure;BME280_temperature;BME280_humidity;BME280_pressure;Samples;Min_cycle;Max_cycle;Signal;HPM_P1;HPM_P2
2020/12/06 00:00:08;;;;;;;20.27;8.80;;;;;;;-4.22;78.78;102189.72;1706963;81;21144;-46
2020/12/06 00:02:36;;;;;;;24.85;10.68;;;;;;;-4.20;78.36;102191.48;1703544;82;21123;-46
2020/12/06 00:05:07;;;;;;;26.62;11.75;;;;;;;-4.20;78.30;102195.77;1727286;81;21351;-46
2020/12/06 00:07:43;;;;;;;20.60;9.93;;;;;;;-4.13;78.11;102199.30;1786577;76;29420;-46
2020/12/06 00:10:17;;;;;;;22.58;11.00;;;;;;;-4.20;77.84;102197.06;1786345;79;22248;-46
2020/12/06 00:12:42;;;;;;;22.57;10.53;;;;;;;-4.24;77.41;102198.77;1793313;79;22513;-46
2020/12/06 00:15:10;;;;;;;20.97;9.20;;;;;;;-4.26;77.38;102203.50;1751295;79;21747;-47
2020/12/06 00:17:38;;;;;;;23.50;9.48;;;;;;;-4.31;77.51;102199.16;1756924;79;21185;-47
2020/12/06 00:20:10;;;;;;;22.45;8.68;;;;;;;-4.33;77.50;102213.78;1800177;79;21726;-46
2020/12/06 00:22:38;;;;;;;21.45;9.78;;;;;;;-4.38;77.42;102214.16;1763245;79;21703;-47
2020/12/06 00:25:06;;;;;;;19.77;9.48;;;;;;;-4.41;77.35;102207.67;1770471;79;22250;-46
2020/12/06 00:27:34;;;;;;;22.22;10.35;;;;;;;-4.48;76.86;102204.59;1767172;79;22567;-47
2020/12/06 00:30:05;;;;;;;21.55;8.98;;;;;;;-4.54;76.75;102212.27;1751355;79;21402;-47
2020/12/06 00:32:33;;;;;;;20.57;8.73;;;;;;;-4.61;76.96;102208.33;1763487;79;21568;-46
2020/12/06 00:35:00;;;;;;;19.35;8.43;;;;;;;-4.62;76.98;102205.31;1765448;79;21172;-46
2020/12/06 00:37:28;;;;;;;27.85;10.88;;;;;;;-4.64;77.13;102204.83;1760222;80;22136;-47
2020/12/06 00:39:55;;;;;;;24.98;10.53;;;;;;;-4.65;77.02;102203.98;1770303;80;22036;-46
2020/12/06 00:42:23;;;;;;;18.65;7.22;;;;;;;-4.65;77.10;102206.56;1735952;81;21246;-47
2020/12/06 00:44:50;;;;;;;22.20;10.53;;;;;;;-4.67;76.55;102210.85;1707168;83;21798;-46
2020/12/06 00:47:18;;;;;;;26.50;10.40;;;;;;;-4.72;76.76;102198.71;1717757;82;21467;-46
2020/12/06 00:49:46;;;;;;;21.97;9.30;;;;;;;-4.75;76.88;102206.02;1720860;81;21589;-46
2020/12/06 00:52:14;;;;;;;22.17;7.83;;;;;;;-4.77;76.94;102196.95;1707627;83;22644;-46
2020/12/06 00:54:42;;;;;;;18.12;8.05;;;;;;;-4.79;76.86;102202.96;1726597;82;21191;-46
2020/12/06 00:57:09;;;;;;;27.37;9.28;;;;;;;-4.82;76.99;102201.64;1735821;82;21208;-46
2020/12/06 00:59:37;;;;;;;25.25;10.08;;;;;;;-4.84;76.40;102199.45;1736061;82;21208;-46
2020/12/06 01:02:06;;;;;;;20.90;9.58;;;;;;;-4.88;76.54;102202.45;1739135;81;22820;-46
2020/12/06 01:04:34;;;;;;;25.12;9.25;;;;;;;-4.94;76.42;102209.69;1690977;83;20972;-46
2020/12/06 01:07:01;;;;;;;27.40;9.10;;;;;;;-4.99;76.56;102203.59;1720181;82;21506;-46
2020/12/06 01:09:30;;;;;;;24.25;9.73;;;;;;;-5.01;76.43;102210.89;1727303;82;20983;-46
2020/12/06 01:11:58;;;;;;;20.97;8.43;;;;;;;-5.04;76.48;102218.16;1714800;82;21145;-46
2020/12/06 01:14:26;;;;;;;26.35;9.53;;;;;;;-5.08;76.61;102212.52;1707838;83;21190;-47
2020/12/06 01:16:53;;;;;;;15.85;7.30;;;;;;;-5.09;76.76;102215.53;1718317;82;21049;-47
2020/12/06 01:19:21;;;;;;;19.05;8.80;;;;;;;-5.09;76.36;102213.36;1724340;82;20999;-46
2020/12/06 01:21:52;;;;;;;21.80;8.35;;;;;;;-5.11;76.38;102216.35;1742890;81;20994;-47
2020/12/06 01:24:20;;;;;;;20.05;9.50;;;;;;;-5.12;75.92;102219.78;1741315;81;21017;-46
2020/12/06 01:26:49;;;;;;;17.87;8.88;;;;;;;-5.16;76.04;102202.52;1709473;83;21258;-47
2020/12/06 01:29:17;;;;;;;17.80;7.97;;;;;;;-5.21;76.06;102212.36;1714991;82;22162;-46
2020/12/06 01:31:46;;;;;;;19.37;7.58;;;;;;;-5.22;75.66;102214.94;1706191;82;21143;-47
2020/12/06 01:34:15;;;;;;;18.75;8.15;;;;;;;-5.24;75.85;102208.44;1727716;82;21919;-46
2020/12/06 01:36:43;;;;;;;22.13;9.60;;;;;;;-5.25;75.65;102202.84;1723182;82;21145;-47
2020/12/06 01:39:10;;;;;;;13.08;6.62;;;;;;;-5.27;75.66;102221.31;1723026;82;21433;-46
2020/12/06 01:41:38;;;;;;;19.73;6.87;;;;;;;-5.31;75.83;102214.41;1727190;82;22178;-46
2020/12/06 01:44:05;;;;;;;22.82;8.55;;;;;;;-5.37;75.82;102210.45;1726957;82;21003;-46
2020/12/06 01:46:36;;;;;;;18.70;8.95;;;;;;;-5.38;75.94;102208.71;1726956;82;21133;-47
2020/12/06 01:49:04;;;;;;;18.92;8.30;;;;;;;-5.40;75.84;102213.84;1701207;82;21015;-46
2020/12/06 01:51:33;;;;;;;15.40;6.97;;;;;;;-5.41;75.76;102215.12;1726899;82;21374;-46
2020/12/06 01:54:00;;;;;;;21.15;7.37;;;;;;;-5.41;76.22;102211.25;1727003;82;21177;-46
2020/12/06 01:56:28;;;;;;;23.47;8.18;;;;;;;-5.40;75.82;102208.67;1720705;82;21404;-46
2020/12/06 01:58:55;;;;;;;17.48;7.90;;;;;;;-5.39;75.78;102213.42;1722213;82;20998;-47
2020/12/06 02:01:23;;;;;;;18.10;7.47;;;;;;;-5.43;75.62;102209.92;1710802;82;21137;-47
2020/12/06 02:03:53;;;;;;;18.48;8.20;;;;;;;-5.44;75.93;102209.91;1704496;82;21385;-46
2020/12/06 02:06:21;;;;;;;22.27;8.13;;;;;;;-5.49;75.77;102203.37;1724100;80;21013;-46
2020/12/06 02:08:50;;;;;;;20.30;8.30;;;;;;;-5.49;75.77;102203.37;1718135;82;21459;-46
2020/12/06 02:11:32;;;;;;;18.02;8.13;;;;;;;-5.47;75.99;102215.03;1717939;82;21172;-47
2020/12/06 02:14:00;;;;;;;;;;;;;;;-5.52;75.96;102218.41;1726997;82;21140;-46
2020/12/06 02:16:27;;;;;;;16.67;7.67;;;;;;;-5.55;75.91;102213.20;1717532;82;21359;-46
2020/12/06 02:18:55;;;;;;;15.85;7.00;;;;;;;-5.61;75.66;102201.51;1700441;82;21058;-46
2020/12/06 02:21:23;;;;;;;17.12;7.40;;;;;;;-5.63;75.66;102207.06;1701617;82;22267;-46
2020/12/06 02:23:50;;;;;;;17.32;6.95;;;;;;;-5.64;75.83;102216.94;1697685;82;21006;-46
2020/12/06 02:26:18;;;;;;;16.87;7.65;;;;;;;-5.67;75.70;102211.73;1702954;82;21597;-46
2020/12/06 02:28:46;;;;;;;20.92;8.95;;;;;;;-5.69;76.00;102216.00;1711794;82;21376;-46
2020/12/06 02:31:13;;;;;;;16.05;8.35;;;;;;;-5.73;75.99;102213.78;1705854;82;21148;-46
2020/12/06 02:33:41;;;;;;;18.32;7.83;;;;;;;-5.72;76.31;102219.83;1700375;82;21099;-49
2020/12/06 02:36:08;;;;;;;16.07;6.37;;;;;;;-5.72;75.98;102219.39;1718655;82;21165;-46
2020/12/06 02:38:38;;;;;;;14.00;7.17;;;;;;;-5.73;76.01;102220.67;1716086;82;21007;-46
2020/12/06 02:41:05;;;;;;;18.17;8.00;;;;;;;-5.78;75.66;102225.73;1699422;82;21210;-46
2020/12/06 02:43:33;;;;;;;13.58;6.55;;;;;;;-5.81;75.60;102225.28;1698275;82;21145;-47
2020/12/06 02:46:01;;;;;;;17.45;8.18;;;;;;;-5.82;75.74;102226.53;1700161;82;21011;-46
2020/12/06 02:48:28;;;;;;;25.23;8.43;;;;;;;-5.84;75.58;102226.96;1699502;82;21156;-46
2020/12/06 02:50:56;;;;;;;12.93;5.70;;;;;;;-5.87;75.71;102227.77;1701198;82;21648;-46
2020/12/06 02:53:23;;;;;;;16.75;7.50;;;;;;;-5.87;75.59;102236.79;1707272;82;21385;-46
2020/12/06 02:55:51;;;;;;;19.52;8.45;;;;;;;-5.90;75.31;102231.58;1726959;82;21006;-47
2020/12/06 02:58:19;;;;;;;16.00;6.45;;;;;;;-5.92;75.17;102233.27;1705454;82;21141;-46
2020/12/06 03:00:46;;;;;;;22.45;7.60;;;;;;;-5.93;75.07;102234.11;1736553;81;21159;-46
2020/12/06 03:03:14;;;;;;;16.30;7.22;;;;;;;-5.95;75.32;102237.09;1717613;82;21157;-46
2020/12/06 03:05:42;;;;;;;16.37;6.15;;;;;;;-5.99;75.11;102237.47;1715469;82;22825;-46
2020/12/06 03:08:09;;;;;;;15.70;7.83;;;;;;;-5.99;74.98;102237.47;1731341;81;21007;-46
2020/12/06 03:10:36;;;;;;;12.20;5.17;;;;;;;-6.02;75.10;102234.88;1733422;82;21135;-46
2020/12/06 03:13:04;;;;;;;15.68;7.00;;;;;;;-6.03;74.87;102232.25;1733511;82;21115;-46
2020/12/06 03:15:33;;;;;;;17.12;6.65;;;;;;;-6.08;74.79;102227.89;1733565;82;21128;-46
2020/12/06 03:18:01;;;;;;;17.23;5.80;;;;;;;-6.08;75.03;102243.80;1721325;82;21368;-46
2020/12/06 03:20:28;;;;;;;12.73;6.62;;;;;;;-6.11;74.75;102240.72;1731381;81;21568;-46
2020/12/06 03:22:58;;;;;;;16.60;6.10;;;;;;;-6.12;74.71;102243.30;1715500;83;21013;-46
2020/12/06 03:25:26;;;;;;;18.35;6.80;;;;;;;-6.11;74.71;102242.02;1732647;82;21608;-46
2020/12/06 03:27:53;;;;;;;20.57;6.30;;;;;;;-6.12;74.66;102248.45;1731215;82;20982;-47
2020/12/06 03:30:21;;;;;;;19.67;7.53;;;;;;;-6.11;74.94;102251.03;1723881;82;21361;-46
2020/12/06 03:32:49;;;;;;;14.80;6.53;;;;;;;-6.12;74.65;102255.74;1720487;82;20979;-46
2020/12/06 03:35:17;;;;;;;13.93;7.10;;;;;;;-6.15;74.44;102249.24;1703500;83;21128;-46
2020/12/06 03:37:44;;;;;;;12.47;5.55;;;;;;;-6.17;74.85;102253.50;1748718;81;20942;-46
2020/12/06 03:40:12;;;;;;;17.57;7.58;;;;;;;-6.21;74.60;102262.02;1748555;81;21134;-46
2020/12/06 03:42:39;;;;;;;14.70;7.15;;;;;;;-6.28;74.94;102252.03;1743504;81;21972;-46
2020/12/06 03:45:07;;;;;;;17.35;6.33;;;;;;;-6.32;75.26;102253.23;1748526;81;20966;-46
2020/12/06 03:47:35;;;;;;;13.50;5.80;;;;;;;-6.32;74.97;102248.07;1732462;81;21019;-46
2020/12/06 03:50:03;;;;;;;17.92;7.25;;;;;;;-6.32;75.04;102254.52;1708508;82;20979;-46
2020/12/06 03:52:30;;;;;;;12.93;5.90;;;;;;;-6.35;74.70;102260.50;1716375;82;21168;-47
2020/12/06 03:54:58;;;;;;;14.50;7.22;;;;;;;-6.33;74.89;102263.97;1729646;82;21362;-46
2020/12/06 03:57:25;;;;;;;15.03;6.35;;;;;;;-6.32;74.83;102263.53;1726841;82;21062;-46
2020/12/06 03:59:54;;;;;;;15.43;6.22;;;;;;;-6.35;74.80;102267.34;1730175;82;21547;-46
2020/12/06 04:02:21;;;;;;;14.85;6.47;;;;;;;-6.37;75.05;102263.46;1726943;82;21120;-46
2020/12/06 04:04:49;;;;;;;18.30;7.08;;;;;;;-6.35;75.01;102271.20;1729033;82;21002;-46
2020/12/06 04:07:16;;;;;;;16.52;6.87;;;;;;;-6.37;74.56;102273.77;1722538;81;22554;-45
2020/12/06 04:09:46;;;;;;;16.62;7.80;;;;;;;-6.38;74.77;102272.92;1720962;82;21033;-46
2020/12/06 04:12:13;;;;;;;16.12;6.40;;;;;;;-6.40;74.78;102279.75;1726942;82;21011;-46
2020/12/06 04:14:41;;;;;;;12.50;5.42;;;;;;;-6.43;74.51;102287.83;1720556;82;21133;-46
2020/12/06 04:17:08;;;;;;;13.03;6.60;;;;;;;-6.44;74.94;102287.37;1726866;82;21152;-46
2020/12/06 04:19:36;;;;;;;15.78;7.28;;;;;;;-6.45;74.95;102288.21;1727289;82;22495;-46
2020/12/06 04:22:05;;;;;;;16.48;7.22;;;;;;;-6.50;74.84;102288.14;1726758;82;21163;-46
2020/12/06 04:24:33;;;;;;;10.58;5.33;;;;;;;-6.52;74.90;102282.94;1726915;82;21876;-46
2020/12/06 04:27:01;;;;;;;15.75;6.72;;;;;;;-6.54;74.76;102298.78;1726693;82;21122;-46
2020/12/06 04:29:28;;;;;;;15.00;6.87;;;;;;;-6.53;74.75;102291.94;1726859;82;21160;-46
2020/12/06 04:31:56;;;;;;;17.17;6.90;;;;;;;-6.54;74.69;102297.93;1726938;82;22217;-47
2020/12/06 04:34:24;;;;;;;13.25;5.42;;;;;;;-6.54;74.49;102299.22;1726766;82;21184;-47
2020/12/06 04:36:51;;;;;;;12.45;5.58;;;;;;;-6.54;74.55;102298.78;1727105;82;21955;-46
2020/12/06 04:39:19;;;;;;;16.40;6.72;;;;;;;-6.56;74.32;102299.17;1721123;82;21140;-47
2020/12/06 04:41:47;;;;;;;14.47;6.85;;;;;;;-6.55;74.49;102302.64;1720155;82;21133;-47
2020/12/06 04:44:15;;;;;;;14.75;6.67;;;;;;;-6.55;74.34;102308.64;1726564;82;21370;-46
2020/12/06 04:46:42;;;;;;;14.43;6.70;;;;;;;-6.59;74.25;102303.41;1701367;82;21941;-46
2020/12/06 04:49:18;;;;;;;14.03;6.25;;;;;;;-6.61;74.59;102301.22;1704307;82;21015;-46
2020/12/06 04:51:45;;;;;;;14.93;6.42;;;;;;;-6.60;74.66;102293.95;1706839;82;21180;-46
2020/12/06 04:54:13;;;;;;;16.85;6.90;;;;;;;-6.63;74.47;102301.61;1703943;82;21619;-46
2020/12/06 04:56:41;;;;;;;13.58;6.03;;;;;;;-6.66;74.62;102299.82;1717071;82;21196;-46
2020/12/06 04:59:09;;;;;;;17.02;6.42;;;;;;;-6.59;74.67;102305.55;1688701;82;22491;-46
2020/12/06 05:01:38;;;;;;;11.78;5.87;;;;;;;-6.55;74.39;102298.77;1711753;82;21168;-46
2020/12/06 05:04:13;;;;;;;13.00;5.95;;;;;;;-6.52;74.09;102294.53;1721380;82;21168;-46
2020/12/06 05:06:42;;;;;;;17.25;7.37;;;;;;;-6.49;74.25;102302.76;1718440;82;21196;-46
2020/12/06 05:09:14;;;;;;;12.18;6.30;;;;;;;-6.54;73.67;102305.22;1729078;81;21368;-46
2020/12/06 05:11:43;;;;;;;14.43;6.03;;;;;;;-6.56;73.87;102295.75;1723893;82;21139;-46
2020/12/06 05:14:10;;;;;;;16.02;6.47;;;;;;;-6.58;73.62;102298.71;1730956;82;21149;-46
2020/12/06 05:16:39;;;;;;;15.08;6.62;;;;;;;-6.60;73.82;102305.53;1733210;82;21159;-46
2020/12/06 05:19:10;;;;;;;10.23;5.28;;;;;;;-6.58;74.08;102300.00;1733199;82;21136;-46
2020/12/06 05:21:41;;;;;;;20.10;5.70;;;;;;;-6.60;73.71;102301.67;1733027;82;21203;-46
2020/12/06 05:24:08;;;;;;;;;;;;;;;-6.64;73.76;102308.45;1735728;82;22011;-46
2020/12/06 05:26:36;;;;;;;15.13;5.65;;;;;;;-6.70;73.85;102305.34;1730392;82;20317;-46
2020/12/06 05:29:04;;;;;;;12.70;5.85;;;;;;;-6.77;73.54;102302.59;1729330;82;21128;-47
2020/12/06 05:31:31;;;;;;;15.05;4.78;;;;;;;-6.83;73.60;102304.64;1731012;82;21623;-47
2020/12/06 05:33:58;;;;;;;12.33;6.10;;;;;;;-6.87;74.04;102306.69;1723670;82;22507;-47
2020/12/06 05:36:27;;;;;;;15.83;5.97;;;;;;;-6.90;74.13;102301.08;1724971;82;22123;-46
2020/12/06 05:38:54;;;;;;;14.45;6.03;;;;;;;-6.87;74.27;102303.69;1686914;84;21153;-46
2020/12/06 05:41:22;;;;;;;17.12;7.25;;;;;;;-6.85;73.79;102308.88;1700814;83;21415;-46
2020/12/06 05:43:50;;;;;;;15.85;5.83;;;;;;;-6.86;73.61;102305.86;1633518;84;21707;-46
2020/12/06 05:46:17;;;;;;;16.07;6.00;;;;;;;-6.86;73.64;102306.71;1700083;84;21200;-45
2020/12/06 05:48:46;;;;;;;20.82;7.25;;;;;;;-6.86;73.61;102309.28;1679105;84;21039;-45
2020/12/06 05:51:15;;;;;;;13.85;6.28;;;;;;;-6.88;73.32;102309.67;1724446;82;21565;-46
2020/12/06 05:53:43;;;;;;;23.47;7.12;;;;;;;-6.86;72.80;102309.72;1723724;82;22121;-45
2020/12/06 05:56:20;;;;;;;12.23;5.72;;;;;;;-6.84;73.37;102317.06;1723636;82;21949;-47
2020/12/06 05:58:51;;;;;;;16.32;6.70;;;;;;;-6.85;73.12;102316.61;1732705;82;21260;-49
2020/12/06 06:01:21;;;;;;;16.60;5.28;;;;;;;-6.81;73.29;102320.98;1732141;82;21193;-46
2020/12/06 06:03:50;;;;;;;12.47;5.95;;;;;;;-6.65;72.75;102332.91;1674008;84;22131;-46
2020/12/06 06:06:26;;;;;;;15.25;6.67;;;;;;;-6.44;72.38;102333.75;1677402;82;21158;-47
2020/12/06 06:08:54;;;;;;;14.50;5.50;;;;;;;-6.16;71.66;102333.86;1711582;81;21152;-47
2020/12/06 06:11:27;;;;;;;20.60;7.37;;;;;;;-5.94;71.02;102319.64;1743803;81;23067;-46
2020/12/06 06:14:03;;;;;;;13.58;6.05;;;;;;;-5.72;70.58;102325.58;1743609;81;21179;-46
2020/12/06 06:16:32;;;;;;;19.17;6.42;;;;;;;-5.49;68.63;102324.26;1743651;81;21635;-46
2020/12/06 06:19:03;;;;;;;15.45;7.25;;;;;;;-5.37;68.02;102331.31;1743635;81;22209;-46
2020/12/06 06:21:39;;;;;;;16.35;6.22;;;;;;;-5.19;68.48;102340.19;1743698;81;22041;-46
2020/12/06 06:24:14;;;;;;;17.42;6.87;;;;;;;-4.97;66.96;102336.20;1720302;82;21429;-46
2020/12/06 06:26:45;;;;;;;12.50;5.50;;;;;;;-4.91;67.22;102336.28;1692542;82;21144;-46
2020/12/06 06:29:13;;;;;;;15.85;6.67;;;;;;;-4.82;65.91;102334.27;1724422;82;21621;-46
2020/12/06 06:31:44;;;;;;;14.78;6.15;;;;;;;-4.78;65.70;102339.92;1723938;82;21140;-46
2020/12/06 06:34:12;;;;;;;17.07;7.12;;;;;;;-4.74;64.91;102341.66;1694795;82;21169;-47
2020/12/06 06:36:40;;;;;;;12.90;6.67;;;;;;;-4.67;65.62;102336.17;1724797;82;22140;-47
2020/12/06 06:39:08;;;;;;;16.70;7.62;;;;;;;-4.59;65.13;102340.13;1671378;82;21156;-46
2020/12/06 06:41:35;;;;;;;17.57;5.83;;;;;;;-4.61;65.29;102340.12;1724733;82;21609;-47
2020/12/06 06:44:04;;;;;;;20.15;8.43;;;;;;;-4.52;65.03;102339.36;1724139;82;21109;-46
2020/12/06 06:46:33;;;;;;;63.05;18.57;;;;;;;-4.53;63.98;102345.37;1724883;82;22156;-46
2020/12/06 06:49:10;;;;;;;18.35;6.87;;;;;;;-4.57;64.86;102337.14;1724892;82;22284;-47
2020/12/06 06:51:38;;;;;;;26.48;8.85;;;;;;;-4.50;64.19;102333.79;1724690;82;21157;-46
2020/12/06 06:54:08;;;;;;;26.25;7.97;;;;;;;-4.52;64.16;102344.97;1724635;82;21140;-46
2020/12/06 06:56:48;;;;;;;30.75;9.73;;;;;;;-4.54;64.44;102345.37;1724735;82;21495;-46
2020/12/06 06:59:38;;;;;;;82.45;21.42;;;;;;;-4.52;64.45;102353.58;1724872;82;21129;-46
2020/12/06 07:02:07;;;;;;;36.93;11.03;;;;;;;-4.52;63.76;102352.28;1710569;81;21376;-46
2020/12/06 07:04:35;;;;;;;37.33;12.75;;;;;;;-4.56;63.75;102338.03;1692929;82;21156;-46
2020/12/06 07:07:03;;;;;;;47.55;16.23;;;;;;;-4.58;64.57;102332.83;1722014;82;21149;-46
2020/12/06 07:09:31;;;;;;;26.05;10.38;;;;;;;-4.48;64.29;102340.28;1693305;82;21181;-46
2020/12/06 07:12:00;;;;;;;18.65;8.85;;;;;;;-4.40;63.69;102336.08;1720425;82;21961;-46
2020/12/06 07:14:28;;;;;;;15.72;6.45;;;;;;;-4.36;63.30;102336.97;1721685;82;21242;-46
2020/12/06 07:16:58;;;;;;;18.80;7.03;;;;;;;-4.38;62.43;102340.84;1718513;82;21157;-46
2020/12/06 07:19:26;;;;;;;18.02;6.60;;;;;;;-4.50;63.12;102341.54;1719436;82;21616;-47
2020/12/06 07:21:53;;;;;;;14.85;5.72;;;;;;;-4.54;62.42;102354.42;1716403;82;21129;-47
2020/12/06 07:24:21;;;;;;;17.15;6.80;;;;;;;-4.59;62.79;102351.77;1720797;82;22071;-46
2020/12/06 07:26:49;;;;;;;17.82;7.40;;;;;;;-4.58;63.48;102347.03;1718591;82;21384;-46
2020/12/06 07:29:17;;;;;;;13.05;5.37;;;;;;;-4.45;63.93;102350.22;1719630;82;21141;-46
2020/12/06 07:31:45;;;;;;;13.93;5.78;;;;;;;-4.37;62.34;102355.91;1716561;82;20995;-47
2020/12/06 07:34:12;;;;;;;18.98;8.60;;;;;;;-4.38;62.10;102352.47;1689813;82;22144;-46
2020/12/06 07:36:40;;;;;;;15.05;7.28;;;;;;;-4.40;63.23;102356.76;1721158;82;21164;-46
2020/12/06 07:39:16;;;;;;;19.20;7.55;;;;;;;-4.31;63.46;102363.74;1693269;82;21441;-47
2020/12/06 07:41:50;;;;;;;11.55;5.78;;;;;;;-4.26;63.05;102358.64;1699784;82;21145;-47
2020/12/06 07:44:18;;;;;;;14.45;7.08;;;;;;;-4.16;62.96;102359.16;1702563;82;21132;-47
2020/12/06 07:46:59;;;;;;;20.70;6.55;;;;;;;-4.17;61.66;102356.13;1719333;82;21128;-50
2020/12/06 07:49:27;;;;;;;21.15;7.85;;;;;;;-4.10;62.77;102360.97;1720953;82;21141;-45
2020/12/06 07:51:55;;;;;;;14.93;7.65;;;;;;;-4.00;62.24;102361.06;1672141;82;21639;-46
2020/12/06 07:54:23;;;;;;;16.60;6.87;;;;;;;-3.98;61.75;102357.22;1721151;82;21161;-46
2020/12/06 07:56:50;;;;;;;14.63;6.10;;;;;;;-3.88;61.75;102355.58;1722262;82;21018;-46
2020/12/06 07:59:23;;;;;;;17.17;7.17;;;;;;;-3.77;60.49;102353.11;1673509;82;21177;-46
2020/12/06 08:01:51;;;;;;;12.07;5.30;;;;;;;-3.74;61.15;102351.41;1715353;82;21117;-47
2020/12/06 08:04:24;;;;;;;17.57;5.92;;;;;;;-3.69;60.27;102353.17;1715594;82;21370;-47
2020/12/06 08:06:54;;;;;;;14.25;6.25;;;;;;;-3.66;60.80;102357.08;1716531;82;21145;-48
2020/12/06 08:09:23;;;;;;;16.12;6.45;;;;;;;-3.63;60.12;102357.11;1679117;82;21929;-47
2020/12/06 08:11:50;;;;;;;13.80;6.47;;;;;;;-3.57;60.95;102368.38;1689931;82;21022;-47
2020/12/06 08:14:20;;;;;;;14.55;5.47;;;;;;;-3.52;60.37;102359.78;1692591;82;21133;-47
2020/12/06 08:17:01;;;;;;;13.40;5.47;;;;;;;-3.52;59.75;102361.08;1692226;82;22057;-46
2020/12/06 08:19:29;;;;;;;14.07;5.85;;;;;;;-3.54;60.48;102362.37;1717852;82;22310;-47
2020/12/06 08:22:01;;;;;;;16.67;6.20;;;;;;;-3.53;59.67;102367.99;1711310;82;21051;-47
2020/12/06 08:24:31;;;;;;;12.63;6.15;;;;;;;-3.58;60.19;102365.34;1721648;82;21169;-47
2020/12/06 08:27:00;;;;;;;17.12;6.35;;;;;;;-3.55;60.26;102360.64;1720055;82;21147;-47
2020/12/06 08:29:41;;;;;;;12.50;5.50;;;;;;;-3.58;60.03;102357.58;1722607;82;21380;-47
2020/12/06 08:32:11;;;;;;;11.50;5.85;;;;;;;-3.58;60.62;102358.87;1714285;82;21044;-47
2020/12/06 08:34:40;;;;;;;16.82;6.53;;;;;;;-3.39;60.61;102351.70;1691271;82;21460;-47
2020/12/06 08:37:18;;;;;;;10.65;4.78;;;;;;;-3.29;60.53;102345.30;1688210;82;21198;-47
2020/12/06 08:39:47;;;;;;;13.25;6.20;;;;;;;-3.16;59.94;102343.66;1721451;81;21982;-47
2020/12/06 08:42:16;;;;;;;14.03;6.15;;;;;;;-3.05;59.70;102347.63;1721925;82;21370;-47
2020/12/06 08:44:58;;;;;;;14.28;5.53;;;;;;;-3.01;59.60;102348.09;1722043;82;21049;-47
2020/12/06 08:47:29;;;;;;;14.93;6.30;;;;;;;-2.95;59.59;102340.77;1722082;82;21447;-47
2020/12/06 08:50:05;;;;;;;11.28;5.72;;;;;;;-2.91;59.32;102342.52;1719819;82;28638;-47
2020/12/06 08:52:34;;;;;;;14.40;6.37;;;;;;;-2.92;59.11;102345.97;1713188;82;21125;-47
2020/12/06 08:55:33;;;;;;;14.15;5.40;;;;;;;-2.98;59.06;102344.63;1717982;82;21214;-45
2020/12/06 08:58:01;;;;;;;16.17;6.25;;;;;;;-3.02;57.88;102344.17;1714774;82;22121;-46
2020/12/06 09:00:30;;;;;;;14.35;6.58;;;;;;;-3.22;58.99;102342.76;1710346;82;21154;-46
2020/12/06 09:02:59;;;;;;;19.05;6.92;;;;;;;-3.18;59.94;102347.10;1720904;82;21173;-46
2020/12/06 09:05:28;;;;;;;19.75;6.45;;;;;;;-3.05;60.05;102346.75;1719919;82;22105;-47
2020/12/06 09:07:57;;;;;;;10.70;5.87;;;;;;;-2.93;59.63;102341.64;1720931;82;21304;-46
2020/12/06 09:10:24;;;;;;;15.03;6.15;;;;;;;-2.81;58.96;102335.68;1711013;82;22219;-47
2020/12/06 09:12:52;;;;;;;18.42;5.70;;;;;;;-2.72;59.05;102342.20;1709378;82;20991;-47
2020/12/06 09:15:20;;;;;;;16.15;6.75;;;;;;;-2.65;58.63;102340.95;1701075;82;21910;-47
2020/12/06 09:17:47;;;;;;;15.68;6.00;;;;;;;-2.74;58.81;102341.75;1720287;82;21137;-47
2020/12/06 09:20:15;;;;;;;22.87;7.15;;;;;;;-2.71;59.53;102332.28;1710042;82;23104;-46
2020/12/06 09:22:42;;;;;;;22.60;6.53;;;;;;;-2.56;59.83;102332.77;1703787;82;21022;-46
2020/12/06 09:25:11;;;;;;;13.95;7.05;;;;;;;-2.36;58.82;102337.16;1700720;82;21154;-46
2020/12/06 09:27:38;;;;;;;15.95;7.80;;;;;;;-2.27;58.43;102342.39;1694242;82;21169;-46
2020/12/06 09:30:06;;;;;;;18.00;6.78;;;;;;;-2.22;58.10;102334.60;1694209;82;21144;-46
2020/12/06 09:32:33;;;;;;;13.53;5.70;;;;;;;-2.21;57.19;102327.70;1714604;82;21378;-46
2020/12/06 09:35:01;;;;;;;14.78;5.55;;;;;;;-2.30;56.79;102329.41;1692277;82;21181;-46
2020/12/06 09:37:28;;;;;;;15.32;5.85;;;;;;;-2.37;55.92;102336.73;1696574;82;21454;-46
2020/12/06 09:39:57;;;;;;;14.98;6.37;;;;;;;-2.52;56.87;102329.33;1722115;82;21030;-46
2020/12/06 09:42:25;;;;;;;16.32;7.70;;;;;;;-2.48;57.62;102326.30;1673251;82;21128;-47
2020/12/06 09:44:53;;;;;;;15.72;6.28;;;;;;;-2.38;57.96;102329.81;1712681;81;22292;-47
2020/12/06 09:47:21;;;;;;;12.05;6.25;;;;;;;-2.32;57.82;102325.06;1701383;82;21137;-47
2020/12/06 09:49:49;;;;;;;13.30;6.12;;;;;;;-2.33;57.46;102331.11;1693398;82;21030;-47
2020/12/06 09:52:16;;;;;;;18.23;8.03;;;;;;;-2.38;57.71;102320.73;1691921;82;21177;-46
2020/12/06 09:54:44;;;;;;;17.75;6.45;;;;;;;-2.35;57.25;102323.75;1696535;81;21133;-46
2020/12/06 09:57:11;;;;;;;18.55;7.90;;;;;;;-2.37;56.58;102328.95;1692163;82;21212;-46
2020/12/06 09:59:39;;;;;;;13.58;5.28;;;;;;;-2.44;57.37;102316.82;1704594;82;21649;-46
2020/12/06 10:02:07;;;;;;;18.00;6.53;;;;;;;-2.47;56.86;102319.41;1707536;82;21002;-45
2020/12/06 10:04:35;;;;;;;15.50;5.40;;;;;;;-2.57;57.15;102314.59;1721706;82;21133;-46
2020/12/06 10:07:02;;;;;;;15.78;6.17;;;;;;;-2.64;57.52;102307.65;1721651;82;21129;-46
2020/12/06 10:09:31;;;;;;;15.18;7.25;;;;;;;-2.67;56.77;102305.52;1721356;82;21002;-47
2020/12/06 10:11:59;;;;;;;14.30;6.50;;;;;;;-2.69;57.31;102301.16;1716573;82;21959;-46
2020/12/06 10:14:27;;;;;;;17.55;6.72;;;;;;;-2.62;57.52;102300.33;1720764;82;21038;-47
2020/12/06 10:16:54;;;;;;;14.05;6.87;;;;;;;-2.58;57.00;102300.78;1721815;82;21784;-46
2020/12/06 10:19:23;;;;;;;23.35;7.70;;;;;;;-2.44;57.50;102302.55;1721980;81;21211;-46
2020/12/06 10:21:50;;;;;;;19.12;8.15;;;;;;;-2.32;57.92;102297.83;1721718;82;21507;-46
2020/12/06 10:24:19;;;;;;;16.05;6.10;;;;;;;-2.18;57.29;102296.12;1720212;82;21165;-45
2020/12/06 10:26:53;;;;;;;12.90;5.08;;;;;;;-2.08;55.65;102296.59;1667365;84;21731;-45
2020/12/06 10:29:21;;;;;;;14.38;6.42;;;;;;;-2.13;55.78;102294.41;1714399;82;21136;-46
2020/12/06 10:31:50;;;;;;;19.05;7.85;;;;;;;-2.19;55.72;102290.95;1718838;82;21137;-46
2020/12/06 10:34:19;;;;;;;13.40;5.53;;;;;;;-2.29;55.89;102304.31;1702360;82;21379;-46
2020/12/06 10:36:56;;;;;;;13.90;5.90;;;;;;;-2.36;56.17;102293.08;1697761;82;21214;-46
2020/12/06 10:39:24;;;;;;;15.80;5.53;;;;;;;-2.38;56.13;102286.56;1707955;81;22142;-46
2020/12/06 10:41:54;;;;;;;15.65;6.03;;;;;;;-2.39;56.44;102289.17;1697549;82;21135;-46
2020/12/06 10:44:22;;;;;;;16.52;7.92;;;;;;;-2.39;56.16;102286.58;1694701;82;21149;-46
2020/12/06 10:46:50;;;;;;;15.08;7.42;;;;;;;-2.35;57.01;102290.91;1699621;82;21460;-46
2020/12/06 10:49:18;;;;;;;24.50;10.15;;;;;;;-2.21;57.40;102284.90;1692661;82;21181;-46
2020/12/06 10:51:47;;;;;;;32.67;12.95;;;;;;;-2.06;56.41;102285.34;1696495;82;22166;-46
2020/12/06 10:54:15;;;;;;;16.40;7.33;;;;;;;-2.05;56.16;102271.50;1707251;82;22240;-46
2020/12/06 10:56:43;;;;;;;23.15;9.73;;;;;;;-2.13;56.33;102272.36;1698782;82;21535;-46
2020/12/06 10:59:10;;;;;;;24.40;10.63;;;;;;;-2.10;55.74;102276.67;1716213;81;22952;-46
2020/12/06 11:01:38;;;;;;;18.23;7.65;;;;;;;-2.11;55.82;102274.94;1716473;82;21141;-46
2020/12/06 11:04:06;;;;;;;21.15;9.10;;;;;;;-2.04;56.48;102272.78;1717149;82;21852;-46
2020/12/06 11:06:33;;;;;;;24.47;8.90;;;;;;;-1.94;56.49;102269.78;1722128;82;21121;-46
2020/12/06 11:09:01;;;;;;;19.50;7.30;;;;;;;-1.87;55.64;102268.05;1715423;82;21101;-46
2020/12/06 11:11:28;;;;;;;18.30;7.35;;;;;;;-1.85;55.19;102264.59;1722058;82;21206;-46
2020/12/06 11:13:57;;;;;;;19.77;8.05;;;;;;;-1.82;55.78;102271.09;1722117;82;21639;-46
2020/12/06 11:16:24;;;;;;;14.58;6.17;;;;;;;-1.80;55.35;102267.18;1701649;82;21141;-46
2020/12/06 11:18:52;;;;;;;13.38;5.62;;;;;;;-1.82;54.20;102250.33;1722323;82;21152;-46
2020/12/06 11:21:20;;;;;;;14.30;6.78;;;;;;;-1.82;53.93;102255.93;1722364;82;22009;-46
2020/12/06 11:23:49;;;;;;;12.65;6.03;;;;;;;-1.82;54.04;102250.73;1722355;82;21335;-46